Time;durP1;ratioP1;P1;durP2;ratioP2;P2;SDS_P1;SDS_P2;PMS_P1;PMS_P2;Temp;Humidity;BMP_temperature;BMP_pressure;BME280_temperature;BME280_humidity;BME280_pressure;Samples;Min_cycle;Max_cycle;Signal;HPM_P1;HPM_P2
2022/05/10 00:00:30;;;;;;;9.17;8.30;;;12.10;99.90;;;;;;6244219;23;20787;-73
2022/05/10 00:02:59;;;;;;;10.73;9.63;;;12.10;99.90;;;;;;6243904;23;20908;-73
2022/05/10 00:05:28;;;;;;;10.87;9.87;;;12.10;99.90;;;;;;6244161;23;20798;-73
2022/05/10 00:07:56;;;;;;;10.13;9.20;;;12.00;99.90;;;;;;6243697;23;20998;-73
2022/05/10 00:10:24;;;;;;;11.10;10.00;;;12.00;99.90;;;;;;6243523;23;20419;-73
2022/05/10 00:12:51;;;;;;;9.67;8.80;;;11.90;99.90;;;;;;6244210;23;20415;-72
2022/05/10 00:15:19;;;;;;;11.10;10.10;;;11.90;99.90;;;;;;6244074;23;20422;-73
2022/05/10 00:17:47;;;;;;;9.87;9.03;;;11.90;99.90;;;;;;6243651;23;20422;-73
2022/05/10 00:20:17;;;;;;;10.90;9.63;;;11.90;99.90;;;;;;6243096;23;20514;-72
2022/05/10 00:22:45;;;;;;;10.75;9.75;;;11.90;99.90;;;;;;6243989;23;20470;-73
2022/05/10 00:25:14;;;;;;;9.10;8.40;;;11.90;99.90;;;;;;6244131;23;20172;-73
2022/05/10 00:27:41;;;;;;;10.87;9.77;;;11.80;99.90;;;;;;6244096;23;20469;-73
2022/05/10 00:30:08;;;;;;;10.60;9.60;;;11.80;99.90;;;;;;6243233;23;20419;-73
2022/05/10 00:32:38;;;;;;;9.40;8.50;;;11.80;99.90;;;;;;6243916;23;20422;-73
2022/05/10 00:35:07;;;;;;;10.10;9.20;;;11.80;99.90;;;;;;6243917;23;20419;-72
2022/05/10 00:37:34;;;;;;;10.50;9.50;;;11.80;99.90;;;;;;6243900;23;20481;-73
2022/05/10 00:40:01;;;;;;;10.37;9.43;;;11.70;99.90;;;;;;6242907;22;20430;-73
2022/05/10 00:42:31;;;;;;;10.93;9.87;;;11.70;99.90;;;;;;6243320;23;20451;-73
2022/05/10 00:45:02;;;;;;;10.20;9.23;;;11.70;99.90;;;;;;6243799;23;20403;-73
2022/05/10 00:47:34;;;;;;;10.03;9.03;;;11.70;99.90;;;;;;6243800;23;20408;-73
2022/05/10 00:50:06;;;;;;;11.50;10.30;;;11.60;99.90;;;;;;6243251;23;20404;-73
2022/05/10 00:52:44;;;;;;;10.23;9.33;;;11.50;99.90;;;;;;6243899;23;20153;-73
2022/05/10 00:55:18;;;;;;;10.35;9.30;;;11.60;99.90;;;;;;6243360;23;20403;-73
2022/05/10 00:57:50;;;;;;;10.50;9.30;;;11.50;99.90;;;;;;6243477;23;20215;-73
2022/05/10 01:00:20;;;;;;;10.68;9.68;;;11.50;99.90;;;;;;6243081;23;20735;-73
2022/05/10 01:02:58;;;;;;;11.13;10.10;;;11.40;99.90;;;;;;6243475;23;20193;-73
2022/05/10 01:05:33;;;;;;;9.23;8.45;;;11.50;99.90;;;;;;6243405;23;20739;-73
2022/05/10 01:08:07;;;;;;;10.50;9.50;;;11.40;99.90;;;;;;6243113;23;20537;-73
2022/05/10 01:10:40;;;;;;;10.55;9.55;;;11.40;99.90;;;;;;6243621;23;20408;-73
2022/05/10 01:13:17;;;;;;;10.13;9.32;;;11.40;99.90;;;;;;6243766;23;20160;-73
2022/05/10 01:15:53;;;;;;;11.20;10.20;;;11.40;99.90;;;;;;6243116;23;20210;-73
2022/05/10 01:18:22;;;;;;;10.85;9.95;;;11.40;99.90;;;;;;6242745;23;20439;-73
2022/05/10 01:20:56;;;;;;;10.52;9.63;;;11.30;99.90;;;;;;6244116;23;20177;-73
2022/05/10 01:23:57;;;;;;;10.40;9.50;;;11.30;99.90;;;;;;6243349;23;20157;-73
2022/05/10 01:26:32;;;;;;;10.32;9.40;;;11.30;99.90;;;;;;6243295;23;20160;-73
2022/05/10 01:29:03;;;;;;;10.85;9.95;;;11.30;99.90;;;;;;6242730;23;20191;-73
2022/05/10 01:31:36;;;;;;;11.20;10.10;;;11.20;99.90;;;;;;6243156;23;20164;-73
2022/05/10 01:34:07;;;;;;;9.82;8.85;;;11.20;99.90;;;;;;6243022;23;20453;-72
2022/05/10 01:36:41;;;;;;;10.80;9.10;;;11.10;99.90;;;;;;6242866;23;20574;-73
2022/05/10 01:39:14;;;;;;;10.73;9.63;;;11.10;99.90;;;;;;6242068;22;20877;-72
2022/05/10 01:41:50;;;;;;;10.13;9.10;;;11.10;99.90;;;;;;6242904;23;20519;-72
2022/05/10 01:44:26;;;;;;;11.07;10.15;;;11.10;99.90;;;;;;6243139;23;20406;-72
2022/05/10 01:47:00;;;;;;;10.00;9.00;;;11.10;99.90;;;;;;6242822;23;20169;-73
2022/05/10 01:49:33;;;;;;;10.55;9.65;;;11.10;99.90;;;;;;6242509;23;20452;-72
2022/05/10 01:52:04;;;;;;;9.63;8.85;;;11.10;99.90;;;;;;6242775;23;20606;-73
2022/05/10 01:55:00;;;;;;;10.65;9.65;;;11.00;99.90;;;;;;6242781;23;20161;-73
2022/05/10 01:57:30;;;;;;;10.20;9.30;;;11.00;99.90;;;;;;6243122;23;20638;-73
2022/05/10 02:00:04;;;;;;;9.73;8.85;;;11.00;99.90;;;;;;6242507;23;20172;-73
2022/05/10 02:02:33;;;;;;;11.68;10.48;;;11.00;99.90;;;;;;6242971;23;20192;-72
2022/05/10 02:05:04;;;;;;;10.55;9.65;;;10.90;99.90;;;;;;6243140;23;20238;-72
2022/05/10 02:07:32;;;;;;;10.10;9.15;;;10.90;99.90;;;;;;6243100;23;20164;-72
2022/05/10 02:10:03;;;;;;;11.05;9.95;;;11.00;99.90;;;;;;6242577;23;20180;-73
2022/05/10 02:12:38;;;;;;;11.30;10.30;;;11.00;99.90;;;;;;6243181;23;20168;-72
2022/05/10 02:15:11;;;;;;;11.60;10.50;;;11.00;99.90;;;;;;6243218;23;20220;-72
2022/05/10 02:17:41;;;;;;;11.15;10.15;;;10.90;99.90;;;;;;6243062;23;20535;-73
2022/05/10 02:20:13;;;;;;;10.88;9.88;;;10.90;99.90;;;;;;6242518;23;20246;-72
2022/05/10 02:22:43;;;;;;;11.05;10.02;;;10.90;99.90;;;;;;6243127;23;20185;-72
2022/05/10 02:25:16;;;;;;;11.50;10.10;;;10.90;99.90;;;;;;6242793;23;20184;-72
2022/05/10 02:27:46;;;;;;;11.20;10.02;;;10.90;99.90;;;;;;6243049;23;20160;-73
2022/05/10 02:30:19;;;;;;;10.65;9.70;;;10.90;99.90;;;;;;6242062;23;20177;-72
2022/05/10 02:33:08;;;;;;;10.82;9.82;;;10.80;99.90;;;;;;6243530;23;20546;-72
2022/05/10 02:35:39;;;;;;;10.85;9.75;;;10.80;99.90;;;;;;6242971;23;20223;-73
2022/05/10 02:38:07;;;;;;;11.35;10.25;;;10.80;99.90;;;;;;6242147;22;20219;-72
2022/05/10 02:40:34;;;;;;;11.50;10.40;;;10.80;99.90;;;;;;6236841;22;20432;-69
2022/05/10 02:43:02;;;;;;;11.52;10.43;;;10.80;99.90;;;;;;6242546;23;20258;-69
2022/05/10 02:45:30;;;;;;;10.85;9.85;;;10.70;99.90;;;;;;6243021;23;20179;-69
2022/05/10 02:48:02;;;;;;;11.40;10.30;;;10.70;99.90;;;;;;6242387;23;20201;-69
2022/05/10 02:50:32;;;;;;;9.85;8.95;;;10.70;99.90;;;;;;6243239;23;20252;-69
2022/05/10 02:52:59;;;;;;;11.50;10.30;;;10.60;99.90;;;;;;6242845;23;20548;-69
2022/05/10 02:55:31;;;;;;;11.30;10.30;;;10.60;99.90;;;;;;6244721;23;20176;-69
2022/05/10 02:58:01;;;;;;;10.85;9.85;;;10.60;99.90;;;;;;6244012;23;20203;-69
2022/05/10 03:00:30;;;;;;;11.55;10.38;;;10.50;99.90;;;;;;6244808;23;20183;-69
2022/05/10 03:03:04;;;;;;;11.30;10.30;;;10.50;99.90;;;;;;6244533;23;20251;-70
2022/05/10 03:05:30;;;;;;;12.10;10.98;;;10.50;99.90;;;;;;6244774;23;20157;-69
2022/05/10 03:07:57;;;;;;;10.55;9.48;;;10.50;99.90;;;;;;6244074;23;20203;-69
2022/05/10 03:10:24;;;;;;;11.35;10.25;;;10.50;99.90;;;;;;6244135;23;20649;-69
2022/05/10 03:12:51;;;;;;;11.63;10.48;;;10.50;99.90;;;;;;6244579;23;20173;-70
2022/05/10 03:15:18;;;;;;;11.13;9.77;;;10.50;99.90;;;;;;6244626;23;20201;-70
2022/05/10 03:17:46;;;;;;;11.50;10.48;;;10.50;99.90;;;;;;6243752;23;20176;-70
2022/05/10 03:20:12;;;;;;;10.60;9.68;;;10.40;99.90;;;;;;6243985;23;20180;-70
2022/05/10 03:22:39;;;;;;;10.65;9.75;;;10.40;99.90;;;;;;6244139;23;20193;-69
2022/05/10 03:25:06;;;;;;;11.05;9.98;;;10.40;99.90;;;;;;6244320;23;20180;-69
2022/05/10 03:27:34;;;;;;;11.32;10.32;;;10.40;99.90;;;;;;6244492;23;20172;-69
2022/05/10 03:30:02;;;;;;;11.48;10.27;;;10.40;99.90;;;;;;6243857;23;20187;-69
2022/05/10 03:32:29;;;;;;;14.15;11.00;;;10.40;99.90;;;;;;6244064;23;20251;-69
2022/05/10 03:35:00;;;;;;;11.60;10.60;;;10.40;99.90;;;;;;6244288;23;20176;-69
2022/05/10 03:37:29;;;;;;;11.95;10.77;;;10.40;99.90;;;;;;6244586;23;20161;-69
2022/05/10 03:39:57;;;;;;;10.30;9.30;;;10.40;99.90;;;;;;6243834;22;20184;-70
2022/05/10 03:42:24;;;;;;;12.15;10.38;;;10.30;99.90;;;;;;6244242;23;20193;-70
2022/05/10 03:44:52;;;;;;;12.20;11.00;;;10.30;99.90;;;;;;6244094;23;20177;-70
2022/05/10 03:47:20;;;;;;;11.65;10.55;;;10.20;99.90;;;;;;6243950;23;20216;-70
2022/05/10 03:49:47;;;;;;;11.60;10.60;;;10.20;99.90;;;;;;6242804;23;20681;-70
2022/05/10 03:52:16;;;;;;;11.40;10.40;;;10.20;99.90;;;;;;6243605;23;20172;-70
2022/05/10 03:54:44;;;;;;;11.40;10.40;;;10.30;99.90;;;;;;6243773;23;20177;-69
2022/05/10 03:57:11;;;;;;;11.13;10.02;;;10.30;99.90;;;;;;6242663;23;20180;-70
2022/05/10 03:59:41;;;;;;;11.30;10.20;;;10.30;99.90;;;;;;6242460;23;20224;-68
2022/05/10 04:02:09;;;;;;;11.80;10.70;;;10.30;99.90;;;;;;6243111;23;20177;-68
2022/05/10 04:04:36;;;;;;;11.38;10.25;;;10.30;99.90;;;;;;6242615;23;20251;-68
2022/05/10 04:07:04;;;;;;;11.95;10.50;;;10.30;99.90;;;;;;6242820;23;20208;-68
2022/05/10 04:09:32;;;;;;;12.32;11.07;;;10.40;99.90;;;;;;6242379;23;20197;-68
2022/05/10 04:11:59;;;;;;;11.90;10.82;;;10.40;99.90;;;;;;6242921;23;20172;-68
2022/05/10 04:14:26;;;;;;;11.18;10.18;;;10.40;99.90;;;;;;6242867;23;20246;-67
2022/05/10 04:16:53;;;;;;;11.13;10.13;;;10.40;99.90;;;;;;6242671;23;20176;-67
2022/05/10 04:19:19;;;;;;;12.40;11.20;;;10.40;99.90;;;;;;6242144;23;20196;-67
2022/05/10 04:21:46;;;;;;;11.48;10.25;;;10.40;99.90;;;;;;6242265;23;20183;-67
2022/05/10 04:24:13;;;;;;;11.63;10.45;;;10.40;99.90;;;;;;6242600;23;20180;-68
2022/05/10 04:26:41;;;;;;;10.65;9.68;;;10.40;99.90;;;;;;6242869;23;20180;-68
2022/05/10 04:29:08;;;;;;;11.98;10.73;;;10.40;99.90;;;;;;6243108;23;20199;-67
2022/05/10 04:31:34;;;;;;;11.23;10.15;;;10.50;99.90;;;;;;6241293;23;20546;-67
2022/05/10 04:34:01;;;;;;;11.15;10.05;;;10.50;99.90;;;;;;6240550;23;20184;-67
2022/05/10 04:36:28;;;;;;;11.13;10.13;;;10.60;99.90;;;;;;6240381;23;20645;-68
2022/05/10 04:38:55;;;;;;;12.93;11.63;;;10.60;99.90;;;;;;6239606;22;20201;-67
2022/05/10 04:41:24;;;;;;;11.32;10.32;;;10.80;99.90;;;;;;6240914;23;20172;-68
2022/05/10 04:43:53;;;;;;;11.13;10.02;;;10.80;99.90;;;;;;6241283;23;20200;-67
2022/05/10 04:46:20;;;;;;;11.85;10.75;;;10.90;99.90;;;;;;6243681;23;20179;-68
2022/05/10 04:48:47;;;;;;;12.48;10.48;;;10.90;99.90;;;;;;6242767;23;20250;-68
2022/05/10 04:51:14;;;;;;;12.00;10.75;;;10.90;99.90;;;;;;6243679;23;20184;-67
2022/05/10 04:53:40;;;;;;;11.95;10.90;;;11.00;99.90;;;;;;6243634;23;20175;-68
2022/05/10 04:56:07;;;;;;;11.20;10.20;;;11.00;99.90;;;;;;6243756;23;20246;-68
2022/05/10 04:58:34;;;;;;;11.50;10.50;;;11.10;99.90;;;;;;6242954;23;20193;-67
2022/05/10 05:01:06;;;;;;;12.63;11.32;;;11.20;99.90;;;;;;6243426;23;21154;-67
2022/05/10 05:03:33;;;;;;;10.47;9.53;;;11.30;99.90;;;;;;6241098;23;20519;-67
2022/05/10 05:06:00;;;;;;;12.10;11.00;;;11.40;99.90;;;;;;6241434;23;20423;-68
2022/05/10 05:08:26;;;;;;;12.13;10.93;;;11.50;99.90;;;;;;6241218;23;20196;-68
2022/05/10 05:10:57;;;;;;;12.07;10.97;;;11.60;99.90;;;;;;6241545;23;20419;-67
2022/05/10 05:13:23;;;;;;;37.08;12.45;;;11.70;99.90;;;;;;6241615;23;20457;-67
2022/05/10 05:15:50;;;;;;;10.60;9.60;;;11.80;99.90;;;;;;6241630;23;20172;-68
2022/05/10 05:18:18;;;;;;;12.40;10.57;;;11.90;99.90;;;;;;6241231;23;20439;-68
2022/05/10 05:20:45;;;;;;;11.30;10.20;;;12.00;99.90;;;;;;6243599;23;20419;-68
2022/05/10 05:23:13;;;;;;;11.77;10.77;;;12.10;99.90;;;;;;6243931;23;20446;-67
2022/05/10 05:25:41;;;;;;;11.50;10.40;;;12.20;99.90;;;;;;6242878;23;20434;-69
2022/05/10 05:28:10;;;;;;;12.23;10.23;;;12.30;99.90;;;;;;6242090;23;20493;-67
2022/05/10 05:30:37;;;;;;;11.40;10.40;;;12.50;99.90;;;;;;6242900;23;20977;-68
2022/05/10 05:33:04;;;;;;;11.23;10.23;;;12.60;99.90;;;;;;6243702;23;20465;-68
2022/05/10 05:35:33;;;;;;;11.03;10.13;;;12.70;99.90;;;;;;6243250;23;20419;-68
2022/05/10 05:37:59;;;;;;;11.87;10.70;;;12.80;99.90;;;;;;6242791;23;20778;-66
2022/05/10 05:40:26;;;;;;;11.63;10.50;;;12.90;99.90;;;;;;6243044;22;20434;-68
2022/05/10 05:42:54;;;;;;;11.67;10.67;;;13.00;99.90;;;;;;6243248;23;20443;-67
2022/05/10 05:45:23;;;;;;;11.67;10.47;;;13.10;99.90;;;;;;6242996;23;20988;-68
2022/05/10 05:47:50;;;;;;;13.87;11.70;;;13.30;99.90;;;;;;6243070;23;20803;-68
2022/05/10 05:50:19;;;;;;;11.70;10.60;;;13.40;99.90;;;;;;6242877;23;20419;-68
2022/05/10 05:52:48;;;;;;;13.10;11.27;;;13.60;99.90;;;;;;6242886;23;21223;-68
2022/05/10 05:55:16;;;;;;;11.17;10.17;;;13.70;99.90;;;;;;6242766;23;20931;-68
2022/05/10 05:57:43;;;;;;;11.53;10.37;;;13.90;99.90;;;;;;6237546;23;20427;-67
2022/05/10 06:00:13;;;;;;;10.47;9.57;;;14.00;99.90;;;;;;6242023;23;20423;-68
2022/05/10 06:02:41;;;;;;;13.07;11.50;;;14.10;99.90;;;;;;6241484;23;20967;-68
2022/05/10 06:05:08;;;;;;;11.20;10.10;;;14.20;99.90;;;;;;6241901;23;20423;-68
2022/05/10 06:07:35;;;;;;;12.43;11.33;;;14.20;99.90;;;;;;6241745;23;20426;-68
2022/05/10 06:10:04;;;;;;;12.00;10.87;;;14.30;99.90;;;;;;6241831;23;20419;-67
2022/05/10 06:12:31;;;;;;;11.40;10.27;;;14.40;99.90;;;;;;6241265;23;20411;-67
2022/05/10 06:14:59;;;;;;;13.73;11.07;;;14.50;99.90;;;;;;6242224;23;20430;-68
2022/05/10 06:17:26;;;;;;;10.33;9.33;;;14.60;99.90;;;;;;6241851;23;20415;-68
2022/05/10 06:19:53;;;;;;;10.30;9.30;;;14.80;99.90;;;;;;6241011;23;20704;-68
2022/05/10 06:22:19;;;;;;;9.80;8.90;;;15.00;99.90;;;;;;6242046;23;20419;-67
2022/05/10 06:24:46;;;;;;;10.10;9.17;;;15.10;99.90;;;;;;6242104;23;20426;-68
2022/05/10 06:27:17;;;;;;;9.37;8.57;;;15.30;99.90;;;;;;6241959;23;20426;-68
2022/05/10 06:29:45;;;;;;;10.77;9.77;;;15.50;99.90;;;;;;6242644;23;21093;-67
2022/05/10 06:32:12;;;;;;;9.37;8.43;;;15.70;99.90;;;;;;6243829;23;20425;-68
2022/05/10 06:34:41;;;;;;;8.90;8.00;;;15.80;99.90;;;;;;6243228;23;20426;-68
2022/05/10 06:38:16;;;;;;;9.07;8.27;;;15.90;99.90;;;;;;6242855;23;20811;-67
2022/05/10 06:40:05;;;;;;;9.83;8.80;;;16.00;99.90;;;;;;6242398;22;20498;-68
2022/05/10 06:42:33;;;;;;;8.50;7.70;;;16.20;99.90;;;;;;6243236;23;20451;-68
2022/05/10 06:45:00;;;;;;;9.37;8.57;;;16.30;99.90;;;;;;6243908;23;20419;-68
2022/05/10 06:47:27;;;;;;;8.63;7.83;;;16.40;99.90;;;;;;6243465;23;20454;-67
2022/05/10 06:49:54;;;;;;;8.40;7.70;;;16.50;99.90;;;;;;6243050;23;20732;-68
2022/05/10 06:52:20;;;;;;;9.37;8.47;;;16.70;99.90;;;;;;6243355;23;20422;-68
2022/05/10 06:54:47;;;;;;;8.87;7.97;;;16.80;99.90;;;;;;6243813;23;20414;-68
2022/05/10 06:57:14;;;;;;;8.73;8.03;;;16.90;99.90;;;;;;6243061;23;20417;-67
2022/05/10 06:59:43;;;;;;;8.57;7.87;;;17.10;99.90;;;;;;6242608;23;20438;-68
2022/05/10 07:02:09;;;;;;;7.63;6.80;;;17.30;99.90;;;;;;6243573;23;20442;-67
2022/05/10 07:04:36;;;;;;;7.73;7.13;;;17.40;99.90;;;;;;6242944;23;20796;-67
2022/05/10 07:07:03;;;;;;;8.90;8.20;;;17.50;99.90;;;;;;6243207;23;20426;-66
2022/05/10 07:09:30;;;;;;;7.93;7.23;;;17.70;99.90;;;;;;6241306;23;20442;-68
2022/05/10 07:11:57;;;;;;;9.03;8.20;;;17.90;99.90;;;;;;6242011;23;20928;-68
2022/05/10 07:14:23;;;;;;;7.50;6.80;;;17.90;99.90;;;;;;6242362;23;20422;-67
2022/05/10 07:16:51;;;;;;;7.67;7.00;;;18.00;99.90;;;;;;6242346;23;20426;-68
2022/05/10 07:19:18;;;;;;;7.60;7.00;;;18.10;99.90;;;;;;6240605;23;20442;-67
2022/05/10 07:21:45;;;;;;;8.90;8.20;;;18.20;99.90;;;;;;6238115;23;20423;-68
2022/05/10 07:24:12;;;;;;;8.60;7.70;;;18.20;99.90;;;;;;6238039;23;20963;-66
2022/05/10 07:26:40;;;;;;;8.40;7.60;;;18.30;99.90;;;;;;6238361;23;20423;-67
2022/05/10 07:29:07;;;;;;;7.27;6.67;;;18.30;99.90;;;;;;6237903;23;20439;-67
2022/05/10 07:31:34;;;;;;;9.70;6.90;;;18.40;99.90;;;;;;6239370;23;20423;-68
2022/05/10 07:34:02;;;;;;;10.00;7.13;;;18.60;99.90;;;;;;6238463;23;20419;-68
2022/05/10 07:36:33;;;;;;;7.07;6.37;;;18.80;99.90;;;;;;6238328;23;21205;-67
2022/05/10 07:39:00;;;;;;;7.33;6.73;;;19.00;99.90;;;;;;6237658;22;20483;-67
2022/05/10 07:41:28;;;;;;;7.10;6.33;;;19.10;99.90;;;;;;6237948;23;20780;-67
2022/05/10 07:43:55;;;;;;;8.97;6.63;;;19.10;99.90;;;;;;6238501;23;20447;-68
2022/05/10 07:46:21;;;;;;;7.17;6.37;;;19.30;99.90;;;;;;6238199;23;20430;-67
2022/05/10 07:48:48;;;;;;;7.13;6.43;;;19.30;99.90;;;;;;6237643;23;20450;-67
2022/05/10 07:51:17;;;;;;;7.47;6.80;;;19.50;99.90;;;;;;6238689;23;20430;-67
2022/05/10 07:53:44;;;;;;;6.80;6.20;;;19.60;99.90;;;;;;6238722;23;20423;-67
2022/05/10 07:56:10;;;;;;;6.77;6.03;;;19.80;99.90;;;;;;6238654;23;20419;-68
2022/05/10 07:58:38;;;;;;;7.63;6.50;;;19.90;99.90;;;;;;6237695;23;20443;-67
2022/05/10 08:01:05;;;;;;;6.60;6.07;;;19.90;99.90;;;;;;6238667;23;20708;-67
2022/05/10 08:03:32;;;;;;;6.73;6.13;;;20.10;99.90;;;;;;6237720;23;20443;-68
2022/05/10 08:06:00;;;;;;;7.67;6.97;;;20.20;99.90;;;;;;6238541;23;20423;-67
2022/05/10 08:08:30;;;;;;;6.83;6.23;;;20.20;99.90;;;;;;6237880;23;20450;-67
2022/05/10 08:10:57;;;;;;;6.93;6.33;;;20.20;99.90;;;;;;6237782;23;20423;-68
2022/05/10 08:13:26;;;;;;;7.10;6.40;;;20.30;99.90;;;;;;6237955;23;20758;-68
2022/05/10 08:15:54;;;;;;;7.40;6.70;;;20.30;99.90;;;;;;6238374;23;20430;-67
2022/05/10 08:18:21;;;;;;;7.70;6.60;;;20.40;99.90;;;;;;6237935;23;20510;-68
2022/05/10 08:20:48;;;;;;;8.87;6.50;;;20.50;99.90;;;;;;6238868;23;20424;-67
2022/05/10 08:23:17;;;;;;;6.83;6.33;;;20.70;99.90;;;;;;6238524;23;20439;-67
2022/05/10 08:25:45;;;;;;;7.80;6.83;;;20.80;99.90;;;;;;6238569;23;20430;-67
2022/05/10 08:28:14;;;;;;;6.47;5.80;;;20.90;99.90;;;;;;6237230;23;20446;-67
2022/05/10 08:30:41;;;;;;;6.63;6.13;;;20.90;99.90;;;;;;6238626;23;20430;-68
2022/05/10 08:33:10;;;;;;;7.10;6.60;;;21.00;99.90;;;;;;6237823;23;20423;-67
2022/05/10 08:35:37;;;;;;;7.00;6.40;;;21.00;99.90;;;;;;6238262;23;20450;-67
2022/05/10 08:38:04;;;;;;;8.60;6.60;;;21.10;99.90;;;;;;6237080;23;20471;-67
2022/05/10 08:40:33;;;;;;;7.13;6.53;;;21.20;99.90;;;;;;6238135;22;20964;-68
2022/05/10 08:43:05;;;;;;;6.77;6.27;;;21.30;99.90;;;;;;6238241;23;20423;-68
2022/05/10 08:45:38;;;;;;;6.83;6.10;;;21.60;99.90;;;;;;6237826;23;20403;-67
2022/05/10 08:48:06;;;;;;;6.70;6.20;;;21.70;99.90;;;;;;6238681;23;20446;-68
2022/05/10 08:50:32;;;;;;;6.30;5.70;;;21.70;99.90;;;;;;6240192;23;20423;-67
2022/05/10 08:53:01;;;;;;;6.73;6.10;;;21.90;99.50;;;;;;6239787;23;20422;-68
2022/05/10 08:55:31;;;;;;;5.90;5.40;;;22.00;99.60;;;;;;6239982;23;20510;-67
2022/05/10 08:58:08;;;;;;;6.30;5.80;;;22.20;99.70;;;;;;6239464;23;20442;-67
2022/05/10 09:00:41;;;;;;;6.10;5.60;;;22.50;99.90;;;;;;6239976;23;20405;-67
2022/05/10 09:03:22;;;;;;;6.33;5.83;;;22.80;97.50;;;;;;6234482;23;20403;-68
2022/05/10 09:05:50;;;;;;;6.40;5.80;;;22.80;97.00;;;;;;6238294;23;20471;-68
2022/05/10 09:08:27;;;;;;;5.47;5.07;;;22.80;96.70;;;;;;6237893;23;20439;-68
2022/05/10 09:10:58;;;;;;;5.13;4.73;;;22.90;96.50;;;;;;6239127;23;20412;-68
2022/05/10 09:13:26;;;;;;;6.40;5.80;;;23.50;95.10;;;;;;6239148;23;20419;-67
2022/05/10 09:16:00;;;;;;;5.20;4.80;;;23.90;95.40;;;;;;6239213;23;20430;-67
2022/05/10 09:18:28;;;;;;;6.27;4.90;;;24.30;93.80;;;;;;6237795;23;20534;-68
2022/05/10 09:21:06;;;;;;;5.50;4.77;;;24.30;93.80;;;;;;6238724;23;20995;-67
2022/05/10 09:23:39;;;;;;;5.70;5.10;;;24.60;93.40;;;;;;6239089;23;20427;-67
2022/05/10 09:26:07;;;;;;;5.13;4.63;;;24.90;92.30;;;;;;6239412;23;20434;-67
2022/05/10 09:28:39;;;;;;;4.83;4.43;;;25.20;91.90;;;;;;6238733;23;20439;-66
2022/05/10 09:36:55;;;;;;;4.90;4.50;;;25.70;91.50;;;;;;6238259;23;20403;-67
2022/05/10 09:39:29;;;;;;;5.17;4.77;;;26.00;91.80;;;;;;6237616;22;20457;-68
2022/05/10 09:41:56;;;;;;;4.67;4.27;;;26.50;92.10;;;;;;6238791;23;20405;-68
2022/05/10 09:44:26;;;;;;;4.80;4.40;;;27.10;91.00;;;;;;6238916;23;20447;-68
2022/05/10 09:47:11;;;;;;;4.87;4.57;;;27.70;90.00;;;;;;6238264;23;20400;-68
2022/05/10 09:49:40;;;;;;;6.00;4.93;;;28.00;90.20;;;;;;6238155;23;20468;-67
2022/05/10 09:52:16;;;;;;;5.10;3.93;;;28.30;87.40;;;;;;6238484;23;20834;-68
2022/05/10 09:54:44;;;;;;;5.07;4.67;;;28.30;87.00;;;;;;6238344;23;20469;-68
2022/05/10 09:57:25;;;;;;;5.33;4.07;;;27.80;84.40;;;;;;6238612;23;20424;-68
2022/05/10 09:59:53;;;;;;;4.47;4.07;;;27.80;84.20;;;;;;6237550;23;20912;-68
2022/05/10 10:02:30;;;;;;;5.00;4.60;;;27.60;87.20;;;;;;6238058;23;20420;-68
2022/05/10 10:04:57;;;;;;;6.30;5.20;;;27.40;87.00;;;;;;6237525;23;20447;-67
2022/05/10 10:07:26;;;;;;;5.40;4.90;;;27.50;87.60;;;;;;6238672;23;20428;-68
2022/05/10 10:09:55;;;;;;;7.00;4.83;;;27.90;87.90;;;;;;6237295;23;20445;-68
2022/05/10 10:12:32;;;;;;;5.00;4.60;;;28.70;86.00;;;;;;6238141;23;20803;-68
2022/05/10 10:15:02;;;;;;;6.13;5.07;;;29.10;84.20;;;;;;6238348;23;20776;-68
2022/05/10 10:17:31;;;;;;;5.00;4.60;;;29.20;83.20;;;;;;6238064;23;20465;-68
2022/05/10 10:20:04;;;;;;;5.23;4.83;;;28.80;81.80;;;;;;6238033;23;20420;-68
2022/05/10 10:22:39;;;;;;;7.43;4.40;;;27.80;82.60;;;;;;6237869;23;20414;-67
2022/05/10 10:25:11;;;;;;;5.03;4.63;;;27.20;84.00;;;;;;6238017;23;20463;-68
2022/05/10 10:27:42;;;;;;;4.80;4.40;;;27.30;87.80;;;;;;6238437;23;20408;-68
2022/05/10 10:30:21;;;;;;;4.67;4.37;;;27.90;87.10;;;;;;6237150;23;20798;-68
2022/05/10 10:32:52;;;;;;;4.87;4.47;;;28.80;83.40;;;;;;6238590;23;20405;-68
2022/05/10 10:35:25;;;;;;;5.60;3.87;;;29.30;79.20;;;;;;6238940;23;20739;-68
2022/05/10 10:37:55;;;;;;;4.73;4.10;;;29.00;81.20;;;;;;6238266;23;20474;-68
2022/05/10 10:40:32;;;;;;;4.73;4.40;;;28.50;81.80;;;;;;6237777;22;20433;-68
2022/05/10 10:43:08;;;;;;;6.30;4.77;;;27.40;82.00;;;;;;6238378;23;20403;-68
2022/05/10 10:45:41;;;;;;;4.30;3.90;;;26.80;86.00;;;;;;6238370;23;20422;-68
2022/05/10 10:48:28;;;;;;;6.13;4.33;;;26.40;85.60;;;;;;6237433;23;20783;-67
2022/05/10 10:50:56;;;;;;;4.40;4.10;;;26.30;83.30;;;;;;6238338;23;20414;-69
2022/05/10 10:53:25;;;;;;;4.50;4.10;;;27.30;86.70;;;;;;6238399;23;20423;-68
2022/05/10 10:56:06;;;;;;;4.80;4.40;;;28.20;83.10;;;;;;6238418;23;20423;-67
2022/05/10 10:58:43;;;;;;;3.90;3.60;;;29.10;82.20;;;;;;6237846;23;20451;-68
2022/05/10 11:01:33;;;;;;;5.87;4.30;;;29.40;78.40;;;;;;6238189;23;20416;-67
2022/05/10 11:04:16;;;;;;;4.63;4.23;;;29.50;80.00;;;;;;6237918;23;20435;-67
2022/05/10 11:06:49;;;;;;;4.20;3.90;;;29.40;82.20;;;;;;6238818;23;20406;-67
2022/05/10 11:09:45;;;;;;;4.50;4.10;;;29.40;80.70;;;;;;6237375;23;20450;-67
2022/05/10 11:12:26;;;;;;;3.93;3.63;;;29.40;74.40;;;;;;6237859;23;21191;-68
2022/05/10 11:15:03;;;;;;;4.17;3.70;;;28.90;76.00;;;;;;6261669;22;20467;-91
2022/05/10 11:17:45;;;;;;;4.43;4.13;;;28.60;78.10;;;;;;6288257;22;20425;-92
2022/05/10 11:20:22;;;;;;;5.90;4.10;;;28.20;77.00;;;;;;6288902;22;20418;-90
2022/05/10 11:22:56;;;;;;;4.20;3.90;;;27.90;79.60;;;;;;6288872;22;20513;-91
2022/05/10 11:25:47;;;;;;;4.60;4.30;;;27.70;81.80;;;;;;6288539;22;20445;-91
2022/05/10 11:28:27;;;;;;;3.93;3.63;;;28.20;80.20;;;;;;6288446;22;20413;-91
2022/05/10 11:31:00;;;;;;;5.67;4.63;;;28.80;77.10;;;;;;6287385;22;20422;-91
2022/05/10 11:33:41;;;;;;;3.67;3.37;;;29.40;77.70;;;;;;6288022;22;20415;-92
2022/05/10 11:36:24;;;;;;;3.90;3.60;;;29.30;72.40;;;;;;6278136;22;20428;-91
2022/05/10 11:39:11;;;;;;;3.83;3.53;;;29.10;76.30;;;;;;6277359;22;20405;-90
2022/05/10 11:41:42;;;;;;;4.00;3.70;;;28.70;75.10;;;;;;6288198;22;20503;-91
2022/05/10 11:44:39;;;;;;;4.07;3.77;;;28.40;73.80;;;;;;6287699;22;20529;-91
2022/05/10 11:47:40;;;;;;;4.43;4.03;;;28.50;74.70;;;;;;6287735;22;20499;-91
2022/05/10 11:50:40;;;;;;;4.03;3.73;;;28.60;73.90;;;;;;6288652;22;20799;-91
2022/05/10 11:53:38;;;;;;;4.27;3.77;;;28.60;76.20;;;;;;6273907;22;20425;-91
2022/05/10 11:56:08;;;;;;;3.87;3.57;;;28.30;77.30;;;;;;6268549;22;20441;-91
2022/05/10 11:58:37;;;;;;;3.57;3.30;;;27.90;75.30;;;;;;6288205;22;20419;-91
2022/05/10 12:02:09;;;;;;;4.50;4.00;;;27.70;78.10;;;;;;6288319;22;20422;-91
2022/05/10 12:08:03;;;;;;;4.53;3.53;;;27.50;75.30;;;;;;6274464;22;20407;-91
2022/05/10 12:10:46;;;;;;;4.10;3.80;;;27.50;75.20;;;;;;6288870;22;20512;-90
2022/05/10 12:24:18;;;;;;;4.30;3.93;;;28.00;74.40;;;;;;6289528;22;20433;-91
2022/05/10 12:27:26;;;;;;;3.93;3.63;;;27.50;77.50;;;;;;6288854;22;20507;-91
2022/05/10 12:33:35;;;;;;;4.27;3.87;;;27.20;79.20;;;;;;6279808;22;20451;-72
2022/05/10 12:36:07;;;;;;;5.20;4.00;;;26.80;79.10;;;;;;6272094;22;20442;-71
2022/05/10 12:38:44;;;;;;;3.63;3.33;;;26.50;79.30;;;;;;6272702;22;20438;-70
2022/05/10 12:41:45;;;;;;;3.93;3.63;;;26.30;79.00;;;;;;6272515;22;20434;-71
2022/05/10 12:44:28;;;;;;;4.13;3.80;;;26.30;78.30;;;;;;6244670;22;20428;-72
2022/05/10 12:47:10;;;;;;;3.73;3.43;;;26.50;80.00;;;;;;6273852;22;20402;-70
2022/05/10 12:49:56;;;;;;;3.93;3.60;;;26.70;81.20;;;;;;6272364;22;20434;-71
2022/05/10 12:52:39;;;;;;;4.10;3.80;;;27.20;80.50;;;;;;6272743;22;20403;-71
2022/05/10 12:55:09;;;;;;;3.80;3.50;;;27.10;78.40;;;;;;6273714;22;20430;-70
2022/05/10 12:57:43;;;;;;;5.40;3.90;;;27.10;78.40;;;;;;6272563;22;20414;-72
2022/05/10 13:00:16;;;;;;;3.93;3.60;;;27.60;77.00;;;;;;6272192;22;20722;-71
2022/05/10 13:02:50;;;;;;;4.03;3.63;;;28.30;80.00;;;;;;6282079;22;20422;-71
2022/05/10 13:05:20;;;;;;;4.27;3.97;;;28.70;78.10;;;;;;6273143;22;20460;-71
2022/05/10 13:08:13;;;;;;;4.30;4.00;;;29.00;77.70;;;;;;6272300;22;20420;-71
2022/05/10 13:10:40;;;;;;;4.87;4.17;;;29.00;77.90;;;;;;6271328;22;20427;-71
2022/05/10 13:13:11;;;;;;;4.13;3.83;;;29.00;76.80;;;;;;6273198;22;20415;-70
2022/05/10 13:15:44;;;;;;;3.83;3.53;;;29.00;74.70;;;;;;6272899;22;20431;-70
2022/05/10 13:18:17;;;;;;;4.80;4.03;;;29.10;76.70;;;;;;6271843;22;20435;-70
2022/05/10 13:20:47;;;;;;;4.37;3.87;;;29.00;75.70;;;;;;6272666;22;20414;-70
2022/05/10 13:23:14;;;;;;;7.60;4.13;;;28.30;75.20;;;;;;6273033;22;20412;-70